Time;durP1;ratioP1;P1;durP2;ratioP2;P2;SDS_P1;SDS_P2;PMS_P1;PMS_P2;Temp;Humidity;BMP_temperature;BMP_pressure;BME280_temperature;BME280_humidity;BME280_pressure;Samples;Min_cycle;Max_cycle;Signal;HPM_P1;HPM_P2
2023/04/29 00:01:09;;;;;;;43.85;28.83;;;14.80;99.90;;;;;;5037994;28;20998;-31
2023/04/29 00:03:38;;;;;;;42.88;27.70;;;14.70;99.90;;;;;;5031238;28;20616;-31
2023/04/29 00:06:06;;;;;;;42.08;27.00;;;14.70;99.90;;;;;;5039252;28;21005;-31
2023/04/29 00:08:38;;;;;;;39.60;25.58;;;14.70;99.90;;;;;;5036927;28;20239;-31
2023/04/29 00:11:09;;;;;;;38.08;25.23;;;14.50;99.90;;;;;;5043364;28;20626;-30
2023/04/29 00:13:39;;;;;;;36.42;24.95;;;14.50;99.90;;;;;;5033827;28;20296;-31
2023/04/29 00:16:09;;;;;;;40.90;25.30;;;14.50;99.90;;;;;;5044123;28;20200;-31
2023/04/29 00:18:37;;;;;;;44.42;28.23;;;14.50;99.90;;;;;;5044153;28;20775;-31
2023/04/29 00:21:11;;;;;;;40.22;25.98;;;14.40;99.90;;;;;;5041669;28;20219;-31
2023/04/29 00:23:40;;;;;;;36.70;25.27;;;14.40;99.90;;;;;;5038769;28;20220;-31
2023/04/29 00:26:07;;;;;;;36.00;24.33;;;14.40;99.90;;;;;;5044012;28;20640;-31
2023/04/29 00:28:36;;;;;;;40.88;27.17;;;14.30;99.90;;;;;;5039896;28;20204;-31
2023/04/29 00:31:03;;;;;;;35.10;24.20;;;14.30;99.90;;;;;;5054035;28;20627;-31
2023/04/29 00:33:33;;;;;;;39.25;24.90;;;14.30;99.90;;;;;;5041183;28;20544;-31
2023/04/29 00:36:03;;;;;;;34.00;23.37;;;14.20;99.90;;;;;;5027246;28;20294;-31
2023/04/29 00:38:34;;;;;;;36.17;23.20;;;14.20;99.90;;;;;;5036903;28;20228;-31
2023/04/29 00:41:03;;;;;;;37.60;23.47;;;14.20;99.90;;;;;;5025024;28;20247;-31
2023/04/29 00:43:31;;;;;;;39.50;25.55;;;14.20;99.90;;;;;;5025496;28;20250;-31
2023/04/29 00:46:00;;;;;;;34.55;23.15;;;14.10;99.90;;;;;;5042539;28;20247;-31
2023/04/29 00:48:27;;;;;;;39.28;25.60;;;14.10;99.90;;;;;;5042882;28;20207;-31
2023/04/29 00:50:57;;;;;;;35.20;23.77;;;14.10;99.90;;;;;;5041756;28;20231;-31
2023/04/29 00:53:24;;;;;;;38.80;24.85;;;14.10;99.90;;;;;;5041124;28;20247;-31
2023/04/29 00:55:52;;;;;;;44.07;26.67;;;14.10;99.90;;;;;;5037481;28;20272;-31
2023/04/29 00:58:19;;;;;;;35.73;24.83;;;14.00;99.90;;;;;;5032410;28;20259;-31
2023/04/29 01:00:49;;;;;;;37.03;24.43;;;14.00;99.90;;;;;;5035513;28;20824;-31
2023/04/29 01:03:18;;;;;;;37.43;24.53;;;14.00;99.90;;;;;;5039406;28;20646;-31
2023/04/29 01:05:53;;;;;;;34.57;23.53;;;14.00;99.90;;;;;;5032199;28;20201;-31
2023/04/29 01:08:41;;;;;;;38.67;25.10;;;14.00;99.90;;;;;;5028635;28;20274;-31
2023/04/29 01:11:11;;;;;;;43.37;25.83;;;13.90;99.90;;;;;;5025454;28;20232;-31
2023/04/29 01:13:50;;;;;;;37.53;23.07;;;13.90;99.90;;;;;;5041448;28;20274;-31
2023/04/29 01:16:30;;;;;;;37.10;23.03;;;13.80;99.90;;;;;;5030781;28;20299;-31
2023/04/29 01:19:00;;;;;;;36.33;24.23;;;13.80;99.90;;;;;;5040565;28;20282;-31
2023/04/29 01:21:30;;;;;;;37.13;23.67;;;13.80;99.90;;;;;;5034907;28;20282;-31
2023/04/29 01:23:58;;;;;;;37.77;24.80;;;13.80;99.90;;;;;;5025931;28;20522;-31
2023/04/29 01:26:32;;;;;;;32.70;21.97;;;13.70;99.90;;;;;;5027852;28;20322;-31
2023/04/29 01:29:12;;;;;;;39.07;24.77;;;13.70;99.90;;;;;;5047332;28;20681;-31
2023/04/29 01:31:52;;;;;;;39.80;25.08;;;13.70;99.90;;;;;;5039841;28;20220;-31
2023/04/29 01:34:45;;;;;;;41.45;25.35;;;13.70;99.90;;;;;;5042079;28;20671;-31
2023/04/29 01:37:27;;;;;;;39.30;25.10;;;13.70;99.90;;;;;;5036339;28;20212;-30
2023/04/29 01:40:18;;;;;;;40.80;24.57;;;13.60;99.90;;;;;;5021825;28;20228;-31
2023/04/29 01:43:03;;;;;;;38.50;24.27;;;13.60;99.90;;;;;;5041523;28;20757;-31
2023/04/29 01:45:35;;;;;;;38.53;24.70;;;13.60;99.90;;;;;;5040042;28;20203;-31
2023/04/29 01:48:08;;;;;;;41.77;26.23;;;13.60;99.90;;;;;;5033277;28;20226;-31
2023/04/29 01:50:40;;;;;;;41.43;26.07;;;13.50;99.90;;;;;;5042885;28;20246;-32
2023/04/29 01:53:09;;;;;;;39.97;27.20;;;13.50;99.90;;;;;;5039074;28;20216;-31
2023/04/29 01:55:39;;;;;;;39.10;25.87;;;13.50;99.90;;;;;;5042052;28;20220;-31
2023/04/29 01:58:09;;;;;;;38.20;26.80;;;13.50;99.90;;;;;;5042490;28;20311;-31
2023/04/29 02:00:39;;;;;;;41.77;27.73;;;13.40;99.90;;;;;;5023193;28;20436;-31
2023/04/29 02:03:09;;;;;;;38.47;26.30;;;13.40;99.90;;;;;;5028466;28;20196;-31
2023/04/29 02:05:39;;;;;;;38.87;26.17;;;13.40;99.90;;;;;;5039558;28;20247;-31
2023/04/29 02:08:08;;;;;;;39.80;25.43;;;13.40;99.90;;;;;;5037149;28;20234;-31
2023/04/29 02:10:40;;;;;;;35.97;24.70;;;13.40;99.90;;;;;;5041650;28;20286;-31
2023/04/29 02:13:09;;;;;;;34.90;23.83;;;13.40;99.90;;;;;;5037711;28;20697;-31
2023/04/29 02:15:39;;;;;;;37.03;24.30;;;13.40;99.90;;;;;;5042599;28;20212;-31
2023/04/29 02:18:11;;;;;;;38.70;24.77;;;13.30;99.90;;;;;;5042455;28;20209;-31
2023/04/29 02:20:38;;;;;;;31.90;22.97;;;13.30;99.90;;;;;;5041646;28;20196;-31
2023/04/29 02:23:05;;;;;;;34.83;23.97;;;13.30;99.90;;;;;;5053000;28;20281;-31
2023/04/29 02:25:36;;;;;;;36.93;24.20;;;13.20;99.90;;;;;;5036418;28;20571;-31
2023/04/29 02:28:03;;;;;;;38.42;24.95;;;13.20;99.90;;;;;;5041617;28;20192;-31
2023/04/29 02:30:30;;;;;;;36.10;24.47;;;13.20;99.90;;;;;;5039905;28;20705;-31
2023/04/29 02:32:57;;;;;;;32.08;24.48;;;13.20;99.90;;;;;;5028442;28;20296;-31
2023/04/29 02:35:24;;;;;;;35.55;25.85;;;13.20;99.90;;;;;;5039822;28;20299;-31
2023/04/29 02:37:54;;;;;;;32.60;24.50;;;13.20;99.90;;;;;;5037919;28;20216;-31
2023/04/29 02:40:24;;;;;;;33.00;25.07;;;13.20;99.90;;;;;;5024996;28;20232;-31
2023/04/29 02:42:51;;;;;;;33.77;25.77;;;13.10;99.90;;;;;;5032585;28;20204;-31
2023/04/29 02:45:23;;;;;;;29.37;23.87;;;13.10;99.90;;;;;;5039563;28;20204;-31
2023/04/29 02:47:55;;;;;;;36.27;25.33;;;13.10;99.90;;;;;;5037773;28;20290;-31
2023/04/29 02:50:24;;;;;;;33.33;24.40;;;13.10;99.90;;;;;;5023899;28;20282;-31
2023/04/29 02:52:51;;;;;;;29.23;22.55;;;13.10;99.90;;;;;;5034095;28;20204;-31
2023/04/29 02:55:19;;;;;;;33.00;25.17;;;13.10;99.90;;;;;;5038554;28;20303;-30
2023/04/29 02:57:46;;;;;;;30.57;24.03;;;13.10;99.90;;;;;;5034021;28;20326;-31
2023/04/29 03:00:13;;;;;;;30.73;23.90;;;13.10;99.90;;;;;;5037006;28;20236;-31
2023/04/29 03:02:41;;;;;;;26.87;21.07;;;13.10;99.90;;;;;;5022967;28;20251;-30
2023/04/29 03:05:12;;;;;;;27.92;22.38;;;13.00;99.90;;;;;;5032311;28;20498;-31
2023/04/29 03:07:43;;;;;;;28.92;22.02;;;13.10;99.90;;;;;;5021690;28;20303;-31
2023/04/29 03:10:11;;;;;;;29.03;23.10;;;13.10;99.90;;;;;;5033411;28;20337;-31
2023/04/29 03:12:40;;;;;;;25.90;20.77;;;13.00;99.90;;;;;;5026853;28;20304;-31
2023/04/29 03:15:12;;;;;;;25.90;21.10;;;13.00;99.90;;;;;;5045100;28;20223;-31
2023/04/29 03:17:44;;;;;;;25.90;21.30;;;13.00;99.90;;;;;;5046337;28;20227;-31
2023/04/29 03:20:14;;;;;;;26.87;21.13;;;13.00;99.90;;;;;;5034695;28;20209;-31
2023/04/29 03:22:41;;;;;;;22.90;19.73;;;13.00;99.90;;;;;;5026576;28;20228;-31
2023/04/29 03:25:13;;;;;;;25.07;20.30;;;13.00;99.90;;;;;;5034553;28;20254;-31
2023/04/29 03:27:40;;;;;;;21.37;18.50;;;12.90;99.90;;;;;;5045468;28;20624;-30
2023/04/29 03:30:10;;;;;;;25.63;20.35;;;12.90;99.90;;;;;;5038354;28;20287;-31
2023/04/29 03:32:44;;;;;;;25.13;21.13;;;12.90;99.90;;;;;;5024847;28;20737;-31
2023/04/29 03:35:14;;;;;;;26.10;22.17;;;12.90;99.90;;;;;;5044022;28;20617;-31
2023/04/29 03:37:43;;;;;;;25.23;21.80;;;12.90;99.90;;;;;;5043701;28;20306;-31
2023/04/29 03:40:15;;;;;;;26.33;21.63;;;12.90;99.90;;;;;;5041004;28;20232;-31
2023/04/29 03:42:44;;;;;;;29.50;23.00;;;12.90;99.90;;;;;;5027356;28;20228;-30
2023/04/29 03:45:16;;;;;;;31.43;24.10;;;12.90;99.90;;;;;;5036277;28;20201;-31
2023/04/29 03:47:46;;;;;;;30.63;25.10;;;12.80;99.90;;;;;;5025118;28;20205;-31
2023/04/29 03:50:15;;;;;;;32.13;24.10;;;12.90;99.90;;;;;;5035859;28;20216;-31
2023/04/29 03:52:43;;;;;;;31.33;25.37;;;12.90;99.90;;;;;;5043431;28;20218;-31
2023/04/29 03:55:11;;;;;;;30.47;24.07;;;12.80;99.90;;;;;;5044007;28;20636;-31
2023/04/29 03:57:38;;;;;;;28.57;23.57;;;12.90;99.90;;;;;;5042792;28;20500;-31
2023/04/29 04:00:08;;;;;;;31.07;24.53;;;12.90;99.90;;;;;;5045257;28;20230;-31
2023/04/29 04:02:40;;;;;;;30.50;23.93;;;12.90;99.90;;;;;;5038134;28;20200;-30
2023/04/29 04:05:11;;;;;;;29.03;22.63;;;12.90;99.90;;;;;;5030664;28;20732;-31
2023/04/29 04:07:40;;;;;;;30.17;21.90;;;12.90;99.90;;;;;;5044825;28;20576;-31
2023/04/29 04:10:12;;;;;;;34.33;24.27;;;12.90;99.90;;;;;;5045055;28;20236;-31
2023/04/29 04:12:39;;;;;;;28.87;21.70;;;12.90;99.90;;;;;;5029412;28;20658;-31
2023/04/29 04:15:12;;;;;;;33.33;23.97;;;12.90;99.90;;;;;;5029684;28;20208;-31
2023/04/29 04:17:41;;;;;;;31.67;22.93;;;12.90;99.90;;;;;;5043238;28;20325;-31
2023/04/29 04:20:12;;;;;;;33.07;23.67;;;12.90;99.90;;;;;;5040003;28;20589;-30
2023/04/29 04:22:41;;;;;;;35.83;25.63;;;12.90;99.90;;;;;;5057229;28;20228;-31
2023/04/29 04:25:09;;;;;;;37.83;25.33;;;12.80;99.90;;;;;;5035945;28;20250;-31
2023/04/29 04:27:41;;;;;;;33.83;25.70;;;12.80;99.90;;;;;;5033534;28;20217;-31
2023/04/29 04:30:08;;;;;;;32.63;24.03;;;12.80;99.90;;;;;;5024972;28;20208;-30
2023/04/29 04:32:39;;;;;;;36.70;26.07;;;12.80;99.90;;;;;;5036356;28;20199;-31
2023/04/29 04:35:07;;;;;;;36.57;26.33;;;12.70;99.90;;;;;;5035337;28;20318;-36
2023/04/29 04:37:36;;;;;;;37.93;25.87;;;12.70;99.90;;;;;;5035871;28;20248;-36
2023/04/29 04:40:10;;;;;;;39.33;27.23;;;12.70;99.90;;;;;;5044900;28;20270;-37
2023/04/29 04:42:39;;;;;;;38.60;27.03;;;12.70;99.90;;;;;;5038993;28;20320;-37
2023/04/29 04:45:08;;;;;;;40.07;26.90;;;12.70;99.90;;;;;;5036918;28;20205;-37
2023/04/29 04:47:40;;;;;;;37.50;27.10;;;12.70;99.90;;;;;;5040857;28;20208;-38
2023/04/29 04:50:12;;;;;;;39.33;26.13;;;12.70;99.90;;;;;;5025926;28;20216;-37
2023/04/29 04:52:39;;;;;;;41.13;28.13;;;12.70;99.90;;;;;;5026721;28;20208;-37
2023/04/29 04:55:09;;;;;;;41.40;26.63;;;12.70;99.90;;;;;;5031233;28;20492;-37
2023/04/29 04:57:38;;;;;;;39.70;26.60;;;12.70;99.90;;;;;;5034226;28;20243;-37
2023/04/29 05:00:06;;;;;;;36.83;25.50;;;12.70;99.90;;;;;;5027386;28;20219;-36
2023/04/29 05:02:33;;;;;;;44.23;27.60;;;12.70;99.90;;;;;;5047223;28;20199;-37
2023/04/29 05:05:00;;;;;;;44.53;28.97;;;12.60;99.90;;;;;;5044657;28;20670;-37
2023/04/29 05:07:28;;;;;;;39.30;28.97;;;12.60;99.90;;;;;;5044424;28;20269;-37
2023/04/29 05:09:55;;;;;;;41.70;27.77;;;12.60;99.90;;;;;;5038461;28;20300;-37
2023/04/29 05:12:29;;;;;;;37.43;27.30;;;12.60;99.90;;;;;;5030583;28;20311;-37
2023/04/29 05:14:56;;;;;;;42.47;28.10;;;12.60;99.90;;;;;;5044546;28;20221;-37
2023/04/29 05:17:24;;;;;;;38.23;27.47;;;12.70;99.90;;;;;;5033640;28;20281;-37
2023/04/29 05:19:54;;;;;;;41.77;28.10;;;12.60;99.90;;;;;;5033522;28;20223;-37
2023/04/29 05:22:21;;;;;;;40.40;28.07;;;12.60;99.90;;;;;;5036171;28;20743;-37
2023/04/29 05:24:50;;;;;;;38.17;27.33;;;12.60;99.90;;;;;;5028280;28;20292;-37
2023/04/29 05:27:19;;;;;;;40.20;27.20;;;12.60;99.90;;;;;;5037646;28;20730;-36
2023/04/29 05:29:49;;;;;;;36.17;24.77;;;12.70;99.90;;;;;;5030984;28;20213;-37
2023/04/29 05:32:19;;;;;;;41.30;26.13;;;12.70;99.90;;;;;;5035718;28;20208;-37
2023/04/29 05:34:46;;;;;;;38.73;26.77;;;12.70;99.90;;;;;;5035174;28;20215;-37
2023/04/29 05:37:20;;;;;;;36.23;25.50;;;12.70;99.90;;;;;;5026079;28;20267;-37
2023/04/29 05:39:49;;;;;;;36.87;25.57;;;12.70;99.90;;;;;;5024390;28;20311;-37
2023/04/29 05:42:19;;;;;;;39.10;26.03;;;12.70;99.90;;;;;;5025625;28;20732;-37
2023/04/29 05:44:46;;;;;;;43.50;26.27;;;12.70;99.90;;;;;;5031961;28;20212;-37
2023/04/29 05:47:16;;;;;;;33.80;25.37;;;12.70;99.90;;;;;;5054178;28;20645;-37
2023/04/29 05:49:45;;;;;;;35.00;23.40;;;12.70;99.90;;;;;;5063564;28;20205;-37
2023/04/29 05:52:13;;;;;;;37.53;25.90;;;12.70;99.90;;;;;;5062382;28;20200;-37
2023/04/29 05:54:43;;;;;;;39.27;26.83;;;12.70;99.90;;;;;;5059531;28;20211;-37
2023/04/29 05:57:12;;;;;;;39.70;26.17;;;12.70;99.90;;;;;;5062642;28;20239;-37
2023/04/29 05:59:39;;;;;;;38.00;26.43;;;12.70;99.90;;;;;;5045372;28;20224;-37
2023/04/29 06:02:10;;;;;;;38.40;26.97;;;12.60;99.90;;;;;;5023859;28;20204;-37
2023/04/29 06:04:39;;;;;;;36.33;25.33;;;12.60;99.90;;;;;;5036085;28;20233;-37
2023/04/29 06:07:08;;;;;;;45.37;28.10;;;12.60;99.90;;;;;;5035818;28;20253;-36
2023/04/29 06:09:37;;;;;;;42.43;27.83;;;12.60;99.90;;;;;;5034185;28;20218;-37
2023/04/29 06:12:07;;;;;;;36.67;25.67;;;12.60;99.90;;;;;;5030955;28;20303;-37
2023/04/29 06:14:37;;;;;;;34.63;25.63;;;12.60;99.90;;;;;;5034490;28;20329;-38
2023/04/29 06:17:04;;;;;;;35.50;25.03;;;12.50;99.90;;;;;;5038371;28;20204;-38
2023/04/29 06:19:35;;;;;;;39.07;24.80;;;12.50;99.90;;;;;;5023531;28;20690;-38
2023/04/29 06:22:05;;;;;;;31.33;25.23;;;12.60;99.90;;;;;;5030834;28;20204;-38
2023/04/29 06:24:34;;;;;;;34.27;24.70;;;12.50;99.90;;;;;;5041894;28;20573;-37
2023/04/29 06:27:06;;;;;;;36.87;24.23;;;12.50;99.90;;;;;;5025946;28;20196;-37
2023/04/29 06:29:40;;;;;;;35.17;26.20;;;12.60;99.90;;;;;;5029472;28;20281;-37
2023/04/29 06:32:12;;;;;;;29.87;22.57;;;12.50;99.90;;;;;;5021687;28;20208;-37
2023/04/29 06:34:40;;;;;;;35.37;24.77;;;12.50;99.90;;;;;;5034026;28;20207;-37
2023/04/29 06:37:12;;;;;;;33.47;23.37;;;12.50;99.90;;;;;;5040606;28;20305;-37
2023/04/29 06:39:41;;;;;;;29.07;21.47;;;12.60;99.90;;;;;;5035096;28;21136;-37
2023/04/29 06:42:11;;;;;;;31.13;22.47;;;12.50;99.90;;;;;;5041584;28;20384;-37
2023/04/29 06:44:44;;;;;;;29.67;22.97;;;12.60;99.90;;;;;;5030746;28;20239;-37
2023/04/29 06:47:12;;;;;;;32.67;22.20;;;12.60;99.90;;;;;;5041878;28;20759;-37
2023/04/29 06:49:39;;;;;;;29.47;21.77;;;12.60;99.90;;;;;;5045018;28;20207;-37
2023/04/29 06:52:09;;;;;;;31.10;23.33;;;12.60;99.90;;;;;;5027569;28;20228;-37
2023/04/29 06:54:38;;;;;;;33.87;23.27;;;12.60;99.90;;;;;;5045115;28;20210;-37
2023/04/29 06:57:13;;;;;;;31.33;21.87;;;12.60;99.90;;;;;;5043902;28;20598;-37
2023/04/29 06:59:42;;;;;;;30.40;24.30;;;12.60;99.90;;;;;;5043033;28;20235;-37
2023/04/29 07:02:10;;;;;;;32.17;24.63;;;12.60;99.90;;;;;;5038695;28;20292;-37
2023/04/29 07:04:41;;;;;;;29.30;22.23;;;12.60;99.90;;;;;;5026046;28;20243;-37
2023/04/29 07:07:09;;;;;;;32.47;24.53;;;12.50;99.90;;;;;;5037164;28;20212;-37
2023/04/29 07:09:36;;;;;;;30.90;23.00;;;12.50;99.90;;;;;;5043432;28;20269;-37
2023/04/29 07:12:03;;;;;;;29.87;23.10;;;12.50;99.90;;;;;;5029030;28;20212;-37
2023/04/29 07:14:30;;;;;;;31.73;24.27;;;12.50;99.90;;;;;;5038894;28;20806;-37
2023/04/29 07:17:00;;;;;;;30.87;23.33;;;12.50;99.90;;;;;;5028458;28;20209;-37
2023/04/29 07:19:32;;;;;;;34.03;24.97;;;12.50;99.90;;;;;;5040833;28;20254;-37
2023/04/29 07:21:59;;;;;;;29.77;23.03;;;12.40;99.90;;;;;;5037295;28;20308;-37
2023/04/29 07:24:26;;;;;;;28.70;22.77;;;12.50;99.90;;;;;;5025479;28;20200;-37
2023/04/29 07:26:56;;;;;;;32.07;23.77;;;12.50;99.90;;;;;;5031823;28;20236;-37
2023/04/29 07:29:26;;;;;;;28.97;23.27;;;12.40;99.90;;;;;;5042483;28;20304;-37
2023/04/29 07:31:56;;;;;;;27.67;22.97;;;12.40;99.90;;;;;;5042442;28;20226;-37
2023/04/29 07:34:23;;;;;;;27.97;22.77;;;12.40;99.90;;;;;;5046894;28;20223;-37
2023/04/29 07:36:50;;;;;;;30.17;22.93;;;12.40;99.90;;;;;;5060004;28;20286;-37
2023/04/29 07:39:17;;;;;;;29.30;23.37;;;12.40;99.90;;;;;;5039602;28;20291;-36
2023/04/29 07:41:49;;;;;;;31.17;22.70;;;12.40;99.90;;;;;;5033064;28;20232;-37
2023/04/29 07:44:19;;;;;;;28.40;22.23;;;12.40;99.90;;;;;;5026231;28;20201;-37
2023/04/29 07:46:49;;;;;;;28.83;21.03;;;12.40;99.90;;;;;;5053236;28;20207;-37
2023/04/29 07:49:18;;;;;;;26.37;20.53;;;12.40;99.90;;;;;;5041497;28;20204;-37
2023/04/29 07:51:45;;;;;;;29.33;22.20;;;12.50;99.90;;;;;;5051083;28;20205;-37
2023/04/29 07:54:15;;;;;;;29.23;22.20;;;12.50;99.90;;;;;;5043266;28;20207;-37
2023/04/29 07:56:42;;;;;;;29.47;21.80;;;12.50;99.90;;;;;;5034015;28;20387;-37
2023/04/29 07:59:11;;;;;;;26.93;20.80;;;12.50;99.90;;;;;;5049292;28;20211;-37
2023/04/29 08:01:44;;;;;;;29.23;21.60;;;12.50;99.90;;;;;;5043584;28;20259;-37
2023/04/29 08:04:11;;;;;;;30.93;23.03;;;12.60;99.90;;;;;;5040255;28;20193;-37
2023/04/29 08:06:40;;;;;;;28.37;21.50;;;12.60;99.90;;;;;;5025659;28;20255;-37
2023/04/29 08:09:07;;;;;;;26.63;21.07;;;12.70;99.90;;;;;;5055196;28;20295;-37
2023/04/29 08:11:38;;;;;;;26.90;20.70;;;12.70;99.90;;;;;;5045230;28;20200;-37
2023/04/29 08:14:08;;;;;;;27.10;19.27;;;12.70;99.90;;;;;;5053883;28;20550;-37
2023/04/29 08:16:37;;;;;;;27.50;21.07;;;12.80;99.90;;;;;;5026187;28;20240;-37
2023/04/29 08:19:07;;;;;;;22.20;18.53;;;12.80;99.90;;;;;;5025884;28;20763;-38
2023/04/29 08:21:34;;;;;;;23.17;18.50;;;12.80;99.90;;;;;;5051110;28;20709;-37
2023/04/29 08:24:04;;;;;;;26.67;20.73;;;12.90;99.90;;;;;;5044025;28;20209;-37
2023/04/29 08:26:31;;;;;;;27.67;20.87;;;12.90;99.90;;;;;;5064799;28;20761;-37
2023/04/29 08:29:03;;;;;;;23.17;19.10;;;12.90;99.90;;;;;;5060066;28;20771;-39
2023/04/29 08:31:31;;;;;;;26.73;20.17;;;13.00;99.90;;;;;;5027853;28;20215;-36
2023/04/29 08:34:00;;;;;;;25.60;20.43;;;13.00;99.90;;;;;;5024908;28;20232;-37
2023/04/29 08:36:30;;;;;;;24.07;19.23;;;13.00;99.90;;;;;;5054283;28;20911;-37
2023/04/29 08:39:00;;;;;;;28.77;19.50;;;13.10;99.90;;;;;;5064720;28;20327;-38
2023/04/29 08:41:37;;;;;;;27.50;19.63;;;13.10;99.90;;;;;;5026448;28;20226;-38
2023/04/29 08:44:08;;;;;;;23.43;19.00;;;13.10;99.90;;;;;;5028256;28;20200;-38
2023/04/29 08:46:38;;;;;;;24.83;19.73;;;13.10;99.90;;;;;;5039446;28;20204;-38
2023/04/29 08:49:11;;;;;;;22.13;18.03;;;13.10;99.90;;;;;;5028988;28;20973;-38
2023/04/29 08:51:41;;;;;;;23.47;19.13;;;13.10;99.90;;;;;;5032901;28;20207;-39
2023/04/29 08:54:11;;;;;;;24.67;18.83;;;13.10;99.90;;;;;;5034589;28;20574;-38
2023/04/29 08:56:45;;;;;;;23.23;18.30;;;13.10;99.90;;;;;;5044236;28;20243;-37
2023/04/29 08:59:18;;;;;;;30.03;19.67;;;13.10;99.90;;;;;;5029458;28;20219;-37
2023/04/29 09:01:51;;;;;;;26.93;21.33;;;13.20;99.90;;;;;;5039555;28;20220;-37
2023/04/29 09:04:43;;;;;;;29.17;21.17;;;13.20;99.90;;;;;;5028324;28;20702;-37
2023/04/29 09:07:11;;;;;;;26.90;20.63;;;13.20;99.90;;;;;;5036731;28;20203;-37
2023/04/29 09:09:40;;;;;;;26.33;20.40;;;13.20;99.90;;;;;;5031331;28;20225;-37
2023/04/29 09:12:12;;;;;;;26.20;20.47;;;13.20;99.90;;;;;;5039962;28;20211;-37
2023/04/29 09:14:42;;;;;;;27.30;20.17;;;13.20;99.90;;;;;;5022555;28;20211;-37
2023/04/29 09:17:15;;;;;;;23.97;19.60;;;13.30;99.90;;;;;;5034057;28;20240;-37
2023/04/29 09:19:47;;;;;;;24.10;19.27;;;13.30;99.90;;;;;;5033654;28;20203;-38
2023/04/29 09:22:16;;;;;;;23.23;18.67;;;13.40;99.90;;;;;;5043187;28;20231;-37
2023/04/29 09:24:44;;;;;;;27.93;19.20;;;13.40;99.90;;;;;;5044450;28;20632;-37
2023/04/29 09:27:26;;;;;;;25.57;20.07;;;13.50;99.90;;;;;;5037804;28;20291;-38
2023/04/29 09:30:02;;;;;;;24.17;19.50;;;13.60;99.90;;;;;;5038364;28;20200;-37
2023/04/29 09:32:32;;;;;;;30.83;20.90;;;13.70;99.90;;;;;;5041791;28;20235;-38
2023/04/29 09:35:23;;;;;;;32.43;22.20;;;13.70;99.90;;;;;;5027980;28;20205;-37
2023/04/29 09:38:06;;;;;;;27.10;19.40;;;13.80;99.90;;;;;;5047899;28;20279;-37
2023/04/29 09:40:36;;;;;;;25.37;18.40;;;13.80;99.90;;;;;;5044984;28;20702;-38
2023/04/29 09:43:25;;;;;;;29.07;20.43;;;13.80;99.90;;;;;;5035062;28;20207;-38
2023/04/29 09:45:53;;;;;;;21.00;17.07;;;13.80;99.90;;;;;;5038303;28;20204;-38
2023/04/29 09:48:29;;;;;;;24.17;17.43;;;13.80;99.90;;;;;;5025777;28;20235;-38
2023/04/29 09:51:01;;;;;;;20.60;17.40;;;13.90;99.90;;;;;;5040823;28;20637;-38
2023/04/29 09:53:31;;;;;;;22.20;19.47;;;14.00;99.90;;;;;;5037616;28;20212;-38
2023/04/29 09:56:00;;;;;;;26.80;19.90;;;14.00;99.90;;;;;;5022628;28;20263;-37
2023/04/29 09:58:38;;;;;;;24.17;17.90;;;14.10;99.90;;;;;;5040554;28;20242;-37
2023/04/29 10:01:05;;;;;;;21.23;16.83;;;14.10;99.90;;;;;;5038265;28;20234;-38
2023/04/29 10:03:41;;;;;;;22.87;17.10;;;14.20;99.90;;;;;;5036559;28;20204;-38
2023/04/29 10:06:18;;;;;;;22.15;18.27;;;14.20;99.90;;;;;;5042383;28;20243;-38
2023/04/29 10:08:50;;;;;;;23.53;16.13;;;14.30;99.90;;;;;;5050834;28;20234;-38
2023/04/29 10:11:17;;;;;;;23.13;16.75;;;14.40;99.90;;;;;;5027313;28;20392;-38
2023/04/29 10:13:51;;;;;;;19.57;15.43;;;14.50;99.90;;;;;;5050611;28;20591;-37
2023/04/29 10:16:33;;;;;;;21.83;16.37;;;14.60;99.90;;;;;;5050481;28;20230;-37
2023/04/29 10:19:08;;;;;;;21.87;16.57;;;14.60;99.90;;;;;;5039959;28;20380;-37
2023/04/29 10:21:38;;;;;;;22.73;17.50;;;14.70;99.90;;;;;;5040127;28;20314;-38
2023/04/29 10:24:08;;;;;;;19.87;15.70;;;14.70;99.90;;;;;;5045189;28;20251;-38
2023/04/29 10:26:38;;;;;;;21.23;15.97;;;14.70;99.90;;;;;;5029293;28;20195;-38
2023/04/29 10:29:10;;;;;;;18.70;16.52;;;14.70;99.90;;;;;;5040853;28;20221;-38
2023/04/29 10:31:38;;;;;;;20.02;15.27;;;14.70;99.90;;;;;;5039942;28;20208;-38
2023/04/29 10:34:06;;;;;;;19.48;16.58;;;14.80;99.90;;;;;;5038262;28;20200;-38
2023/04/29 10:36:38;;;;;;;19.13;15.88;;;14.80;99.90;;;;;;5038961;28;20294;-38
2023/04/29 10:39:11;;;;;;;20.70;16.93;;;14.80;99.90;;;;;;5040656;28;20666;-38
2023/04/29 10:41:46;;;;;;;18.77;16.33;;;14.90;99.90;;;;;;5033206;28;20227;-38
2023/04/29 10:44:13;;;;;;;17.67;15.27;;;14.90;99.90;;;;;;5050853;28;20191;-38
2023/04/29 10:46:45;;;;;;;20.20;17.23;;;14.90;99.90;;;;;;5033848;28;20204;-38
2023/04/29 10:49:12;;;;;;;18.55;16.02;;;14.90;99.90;;;;;;5040622;28;20303;-38
2023/04/29 10:51:44;;;;;;;17.92;14.80;;;14.90;99.90;;;;;;5036976;28;20697;-38
2023/04/29 10:54:24;;;;;;;20.60;16.38;;;14.90;99.90;;;;;;5035986;28;20736;-37
2023/04/29 10:56:56;;;;;;;19.67;16.13;;;14.90;99.90;;;;;;5043520;28;20626;-38
2023/04/29 10:59:32;;;;;;;22.80;17.58;;;14.90;99.90;;;;;;5055836;28;20296;-38
2023/04/29 11:02:06;;;;;;;18.70;16.00;;;14.90;99.90;;;;;;5041798;28;20323;-38
2023/04/29 11:04:55;;;;;;;21.00;16.58;;;15.00;99.90;;;;;;5042551;28;20223;-38
2023/04/29 11:07:29;;;;;;;19.07;15.07;;;15.00;99.90;;;;;;5036891;28;20306;-38
2023/04/29 11:10:00;;;;;;;20.73;16.00;;;15.00;99.90;;;;;;5027182;28;20298;-38
2023/04/29 11:12:30;;;;;;;21.33;16.80;;;15.10;99.90;;;;;;5039286;28;20253;-38
2023/04/29 11:15:03;;;;;;;21.42;17.42;;;15.10;99.90;;;;;;5049095;28;20339;-38
2023/04/29 11:17:36;;;;;;;23.23;17.27;;;15.10;99.90;;;;;;5037123;28;20209;-30
2023/04/29 11:20:08;;;;;;;20.92;16.23;;;15.10;99.90;;;;;;5031047;28;20591;-29
2023/04/29 11:22:35;;;;;;;21.23;16.17;;;15.10;99.90;;;;;;5037611;28;20327;-29
2023/04/29 11:25:10;;;;;;;20.15;16.95;;;15.20;99.90;;;;;;5038935;28;20295;-29
2023/04/29 11:27:41;;;;;;;19.23;15.93;;;15.20;99.90;;;;;;5035537;28;20201;-29
2023/04/29 11:30:12;;;;;;;17.17;14.52;;;15.20;99.90;;;;;;5054506;28;20749;-29
2023/04/29 11:32:44;;;;;;;16.90;15.02;;;15.30;99.90;;;;;;5045493;28;20574;-29
2023/04/29 11:35:15;;;;;;;18.13;15.13;;;15.30;99.90;;;;;;5044547;28;20250;-29
2023/04/29 11:37:47;;;;;;;17.33;14.77;;;15.40;99.90;;;;;;5043941;28;20207;-29
2023/04/29 11:40:15;;;;;;;15.98;14.20;;;15.50;99.90;;;;;;5041306;28;20292;-29
2023/04/29 11:42:44;;;;;;;16.63;13.23;;;15.60;99.90;;;;;;5031941;28;20229;-29
2023/04/29 11:45:12;;;;;;;17.10;14.10;;;15.70;99.90;;;;;;5030685;28;20227;-29
2023/04/29 11:47:45;;;;;;;18.60;15.45;;;15.80;99.90;;;;;;5046318;28;20713;-29
2023/04/29 11:50:18;;;;;;;17.58;15.20;;;15.80;99.90;;;;;;5043364;28;20224;-29
2023/04/29 11:52:47;;;;;;;17.10;14.57;;;15.80;99.90;;;;;;5057469;28;20641;-30
2023/04/29 11:55:15;;;;;;;15.85;13.20;;;15.80;99.90;;;;;;5065438;28;20299;-29
2023/04/29 11:57:47;;;;;;;15.93;13.05;;;15.90;99.90;;;;;;5059183;28;20249;-29
2023/04/29 12:00:15;;;;;;;14.57;12.50;;;15.90;99.90;;;;;;5028431;28;20678;-29
2023/04/29 12:02:45;;;;;;;15.90;13.80;;;16.00;99.90;;;;;;5045440;28;20274;-29
2023/04/29 12:05:24;;;;;;;17.75;15.45;;;16.10;99.90;;;;;;5044518;28;20207;-29
2023/04/29 12:07:51;;;;;;;17.08;13.70;;;16.20;99.90;;;;;;5045371;28;20206;-29
2023/04/29 12:10:23;;;;;;;15.80;13.37;;;16.20;99.90;;;;;;5041358;28;20692;-29
2023/04/29 12:12:51;;;;;;;12.68;11.38;;;16.30;99.90;;;;;;5058747;28;20327;-29
2023/04/29 12:15:18;;;;;;;13.27;11.88;;;16.30;99.90;;;;;;5042896;28;20205;-29
2023/04/29 12:17:46;;;;;;;14.40;12.63;;;16.40;99.90;;;;;;5035166;28;20248;-29
2023/04/29 12:20:16;;;;;;;14.98;12.75;;;16.50;99.90;;;;;;5024438;28;20212;-29
2023/04/29 12:22:43;;;;;;;15.05;12.93;;;16.50;99.90;;;;;;5027188;28;20285;-29
2023/04/29 12:25:11;;;;;;;17.80;12.90;;;16.60;99.90;;;;;;5050774;28;20296;-29
2023/04/29 12:27:44;;;;;;;14.63;13.05;;;16.70;99.90;;;;;;5064023;28;20211;-30
2023/04/29 12:30:13;;;;;;;16.63;14.02;;;16.70;99.90;;;;;;5065039;28;20748;-29
2023/04/29 12:32:44;;;;;;;14.13;12.63;;;16.70;99.90;;;;;;5050028;28;20262;-29
2023/04/29 12:35:18;;;;;;;16.08;14.35;;;16.70;99.90;;;;;;5039937;28;20331;-29
2023/04/29 12:37:49;;;;;;;14.98;13.38;;;16.70;99.90;;;;;;5039504;28;20202;-29
2023/04/29 12:40:19;;;;;;;15.05;13.23;;;16.70;99.90;;;;;;5045324;28;20208;-29
2023/04/29 12:42:49;;;;;;;14.43;12.88;;;16.70;99.90;;;;;;5037995;28;20231;-29
2023/04/29 12:45:32;;;;;;;14.82;13.10;;;16.70;99.90;;;;;;5044203;28;20208;-29